Time;durP1;ratioP1;P1;durP2;ratioP2;P2;SDS_P1;SDS_P2;PMS_P1;PMS_P2;Temp;Humidity;BMP_temperature;BMP_pressure;BME280_temperature;BME280_humidity;BME280_pressure;Samples;Min_cycle;Max_cycle;Signal;HPM_P1;HPM_P2
2024/02/18 00:01:16;;;;;;;12.40;5.68;;;;;;;8.88;100.00;103143.84;5054695;28;20090;-73
2024/02/18 00:03:41;;;;;;;9.18;5.40;;;;;;;8.90;100.00;103149.09;5054647;28;20041;-74
2024/02/18 00:06:07;;;;;;;13.38;6.03;;;;;;;8.91;100.00;103145.50;5054702;28;20075;-74
2024/02/18 00:08:32;;;;;;;12.30;5.80;;;;;;;8.91;100.00;103130.44;5054530;28;20458;-74
2024/02/18 00:10:57;;;;;;;12.02;5.95;;;;;;;8.92;100.00;103129.50;5053613;28;20037;-75
2024/02/18 00:13:23;;;;;;;14.23;5.50;;;;;;;8.91;100.00;103119.84;5055011;28;20374;-74
2024/02/18 00:15:48;;;;;;;10.23;5.38;;;;;;;8.95;100.00;103123.19;5054470;28;20086;-74
2024/02/18 00:18:13;;;;;;;10.50;5.03;;;;;;;9.00;100.00;103119.38;5054372;28;20032;-74
2024/02/18 00:20:39;;;;;;;9.07;4.97;;;;;;;9.05;100.00;103121.81;5054684;28;20033;-74
2024/02/18 00:23:04;;;;;;;9.32;5.05;;;;;;;9.10;100.00;103117.13;5054637;28;20033;-74
2024/02/18 00:25:29;;;;;;;10.35;5.28;;;;;;;9.15;100.00;103116.91;5054534;28;20028;-73
2024/02/18 00:27:55;;;;;;;13.30;5.63;;;;;;;9.20;100.00;103114.06;5054184;28;20443;-74
2024/02/18 00:30:20;;;;;;;8.15;4.90;;;;;;;9.24;100.00;103108.53;5054158;28;20451;-73
2024/02/18 00:32:46;;;;;;;10.30;4.70;;;;;;;9.25;100.00;103102.25;5054154;28;20025;-74
2024/02/18 00:35:11;;;;;;;8.45;5.18;;;;;;;9.29;100.00;103110.94;5054302;28;20072;-74
2024/02/18 00:37:37;;;;;;;10.65;4.28;;;;;;;9.37;100.00;103108.75;5054180;28;20037;-75
2024/02/18 00:40:02;;;;;;;11.00;5.00;;;;;;;9.42;100.00;103108.53;5053718;28;20068;-73
2024/02/18 00:42:27;;;;;;;6.32;4.47;;;;;;;9.44;100.00;103099.56;5054243;28;20039;-73
2024/02/18 00:44:53;;;;;;;7.63;4.70;;;;;;;9.47;100.00;103101.22;5053658;28;20029;-74
2024/02/18 00:47:18;;;;;;;9.38;4.60;;;;;;;9.47;100.00;103099.41;5053748;28;20500;-73
2024/02/18 00:49:43;;;;;;;8.48;4.10;;;;;;;9.52;100.00;103100.03;5053866;28;20390;-74
2024/02/18 00:52:10;;;;;;;7.65;4.15;;;;;;;9.54;100.00;103084.03;5054027;28;20033;-73
2024/02/18 00:54:35;;;;;;;8.75;4.93;;;;;;;9.55;100.00;103088.38;5052502;28;20032;-73
2024/02/18 00:57:01;;;;;;;12.50;4.18;;;;;;;9.55;100.00;103079.56;5054621;28;20029;-72
2024/02/18 00:59:27;;;;;;;14.98;5.03;;;;;;;9.58;100.00;103084.72;5053387;28;20063;-74
2024/02/18 01:01:52;;;;;;;9.32;4.95;;;;;;;9.60;100.00;103077.50;5053343;28;20060;-75
2024/02/18 01:04:17;;;;;;;17.70;5.10;;;;;;;9.62;100.00;103075.66;5053599;28;20519;-78
2024/02/18 01:06:43;;;;;;;10.63;4.45;;;;;;;9.61;100.00;103076.59;5053816;28;20041;-74
2024/02/18 01:09:09;;;;;;;12.55;4.82;;;;;;;9.56;100.00;103076.81;5053219;28;20120;-75
2024/02/18 01:11:34;;;;;;;7.60;4.50;;;;;;;9.51;100.00;103069.09;5053315;28;20032;-74
2024/02/18 01:14:01;;;;;;;8.77;4.28;;;;;;;9.47;100.00;103066.66;5053680;28;20036;-74
2024/02/18 01:16:29;;;;;;;7.68;4.28;;;;;;;9.46;100.00;103060.47;5053895;28;20044;-74
2024/02/18 01:18:54;;;;;;;8.13;4.88;;;;;;;9.46;100.00;103055.16;5052622;28;20037;-74
2024/02/18 01:21:19;;;;;;;6.70;4.07;;;;;;;9.44;100.00;103067.66;5053444;28;20528;-79
2024/02/18 01:23:45;;;;;;;10.05;3.80;;;;;;;9.44;100.00;103062.34;5053799;28;20060;-74
2024/02/18 01:26:10;;;;;;;7.22;3.78;;;;;;;9.46;100.00;103062.28;5053253;28;20036;-73
2024/02/18 01:28:35;;;;;;;6.47;3.60;;;;;;;9.44;100.00;103053.53;5053172;28;20037;-73
2024/02/18 01:31:01;;;;;;;9.65;3.80;;;;;;;9.34;100.00;103053.13;5053810;28;20028;-73
2024/02/18 01:33:26;;;;;;;7.25;3.80;;;;;;;9.24;100.00;103050.06;5052294;28;20037;-74
2024/02/18 01:35:51;;;;;;;9.70;3.55;;;;;;;9.15;100.00;103056.69;5053828;28;20060;-74
2024/02/18 01:38:17;;;;;;;7.63;3.50;;;;;;;9.10;100.00;103048.09;5053457;28;20041;-74
2024/02/18 01:40:42;;;;;;;6.45;3.45;;;;;;;9.04;100.00;103051.03;5052302;28;20490;-74
2024/02/18 01:43:08;;;;;;;10.70;3.60;;;;;;;8.97;100.00;103055.81;5053142;28;20508;-74
2024/02/18 01:45:33;;;;;;;15.15;4.25;;;;;;;8.94;100.00;103040.03;5053310;28;20124;-75
2024/02/18 01:47:59;;;;;;;7.60;3.47;;;;;;;8.90;100.00;103045.56;5054699;28;20433;-74
2024/02/18 01:50:24;;;;;;;10.00;3.63;;;;;;;8.83;100.00;103043.19;5056523;28;20049;-74
2024/02/18 01:52:52;;;;;;;13.38;4.00;;;;;;;8.79;100.00;103036.31;5056035;28;20063;-73
2024/02/18 01:55:18;;;;;;;7.90;3.53;;;;;;;8.77;100.00;103040.81;5057433;28;20124;-74
2024/02/18 01:57:44;;;;;;;6.35;3.75;;;;;;;8.71;100.00;103038.47;5060725;28;20108;-73
2024/02/18 02:00:14;;;;;;;6.07;3.65;;;;;;;8.65;100.00;103030.81;5061135;28;20025;-74
2024/02/18 02:02:41;;;;;;;10.10;3.60;;;;;;;8.62;100.00;103028.28;5059849;28;20032;-75
2024/02/18 02:05:09;;;;;;;12.63;3.97;;;;;;;8.59;100.00;103023.13;5058071;28;20033;-75
2024/02/18 02:07:34;;;;;;;13.40;4.28;;;;;;;8.57;100.00;103033.81;5057824;28;20028;-75
2024/02/18 02:10:01;;;;;;;15.75;3.80;;;;;;;8.55;100.00;103024.19;5056421;28;20359;-75
2024/02/18 02:12:26;;;;;;;14.38;4.78;;;;;;;8.52;100.00;103027.84;5057396;28;20036;-78
2024/02/18 02:14:52;;;;;;;11.95;3.83;;;;;;;8.50;100.00;103028.88;5055508;28;20033;-76
2024/02/18 02:17:18;;;;;;;13.15;3.80;;;;;;;8.50;100.00;103023.56;5056799;28;20033;-76
2024/02/18 02:19:43;;;;;;;10.68;4.00;;;;;;;8.46;100.00;103028.16;5057124;28;20094;-76
2024/02/18 02:22:09;;;;;;;9.27;3.80;;;;;;;8.45;100.00;103021.13;5055277;28;20504;-76
2024/02/18 02:24:35;;;;;;;11.20;3.78;;;;;;;8.42;100.00;103021.22;5055372;28;20074;-75
2024/02/18 02:27:04;;;;;;;11.95;4.18;;;;;;;8.40;100.00;103017.78;5056293;28;20103;-75
2024/02/18 02:29:30;;;;;;;8.73;4.00;;;;;;;8.40;100.00;103015.13;5056437;28;20534;-75
2024/02/18 02:31:55;;;;;;;11.90;4.05;;;;;;;8.39;100.00;103013.41;5038533;28;20033;-75
2024/02/18 02:34:22;;;;;;;12.80;4.38;;;;;;;8.36;100.00;103005.59;5056663;28;20128;-75
2024/02/18 02:36:48;;;;;;;12.30;4.25;;;;;;;8.35;100.00;103003.91;5056872;28;20056;-76
2024/02/18 02:39:13;;;;;;;8.15;3.85;;;;;;;8.34;100.00;102997.72;5056501;28;20037;-74
2024/02/18 02:41:39;;;;;;;12.48;4.28;;;;;;;8.36;100.00;102992.34;5056225;28;20032;-76
2024/02/18 02:44:04;;;;;;;8.80;4.30;;;;;;;8.36;100.00;102990.56;5056458;28;20025;-75
2024/02/18 02:46:30;;;;;;;8.10;4.15;;;;;;;8.36;100.00;102979.94;5056501;28;20379;-75
2024/02/18 02:48:55;;;;;;;7.20;3.50;;;;;;;8.38;100.00;102980.72;5056255;28;20033;-75
2024/02/18 02:51:20;;;;;;;9.13;3.65;;;;;;;8.36;100.00;102971.09;5055390;28;20029;-75
2024/02/18 02:53:46;;;;;;;12.40;4.22;;;;;;;8.38;100.00;102963.97;5056247;28;20511;-74
2024/02/18 02:56:12;;;;;;;6.18;3.38;;;;;;;8.40;100.00;102970.03;5056005;28;20029;-74
2024/02/18 02:58:37;;;;;;;6.68;3.60;;;;;;;8.37;100.00;102960.44;5056619;28;20041;-75
2024/02/18 03:01:02;;;;;;;10.23;3.85;;;;;;;8.38;100.00;102956.00;5056222;28;20057;-75
2024/02/18 03:03:28;;;;;;;7.00;3.17;;;;;;;8.37;100.00;102943.66;5055961;28;20087;-74
2024/02/18 03:05:53;;;;;;;11.98;3.42;;;;;;;8.37;100.00;102938.34;5055650;28;20368;-75
2024/02/18 03:08:18;;;;;;;9.07;3.53;;;;;;;8.38;100.00;102940.94;5055915;28;20093;-76
2024/02/18 03:10:44;;;;;;;8.50;3.40;;;;;;;8.36;100.00;102950.78;5054442;28;20441;-77
2024/02/18 03:13:09;;;;;;;4.13;2.70;;;;;;;8.36;100.00;102932.19;5055722;28;20030;-75
2024/02/18 03:15:35;;;;;;;7.88;2.97;;;;;;;8.36;100.00;102931.31;5055682;28;20064;-79
2024/02/18 03:18:03;;;;;;;9.70;3.40;;;;;;;8.36;100.00;102920.72;5054814;28;20041;-76
2024/02/18 03:20:28;;;;;;;5.85;3.67;;;;;;;8.36;100.00;102907.44;5055603;28;20051;-76
2024/02/18 03:22:54;;;;;;;9.25;3.92;;;;;;;8.34;100.00;102912.84;5055439;28;20449;-75
2024/02/18 03:25:20;;;;;;;12.18;3.35;;;;;;;8.33;100.00;102910.25;5055545;28;20032;-76
2024/02/18 03:27:46;;;;;;;10.35;3.88;;;;;;;8.33;100.00;102902.28;5054997;28;20025;-75
2024/02/18 03:30:11;;;;;;;13.10;3.65;;;;;;;8.35;100.00;102905.75;5055684;28;20473;-75
2024/02/18 03:32:37;;;;;;;9.77;4.47;;;;;;;8.36;100.00;102889.75;5055556;28;20064;-75
2024/02/18 03:35:06;;;;;;;12.35;3.42;;;;;;;8.40;100.00;102877.19;5053886;28;20053;-76
2024/02/18 03:37:32;;;;;;;12.43;3.63;;;;;;;8.43;100.00;102866.44;5055522;28;20553;-75
2024/02/18 03:39:57;;;;;;;12.27;3.67;;;;;;;8.42;100.00;102868.22;5055209;28;20033;-76
2024/02/18 03:42:23;;;;;;;9.82;3.50;;;;;;;8.42;100.00;102870.88;5055199;28;20036;-76
2024/02/18 03:44:49;;;;;;;10.98;3.80;;;;;;;8.41;100.00;102858.56;5055074;28;20045;-75
2024/02/18 03:47:14;;;;;;;9.07;3.35;;;;;;;8.40;100.00;102856.81;5055309;28;20055;-76
2024/02/18 03:49:40;;;;;;;10.98;3.97;;;;;;;8.37;100.00;102854.31;5054856;28;20051;-76
2024/02/18 03:52:06;;;;;;;13.15;3.33;;;;;;;8.33;100.00;102841.28;5055190;28;20497;-74
2024/02/18 03:54:31;;;;;;;11.65;3.70;;;;;;;8.29;100.00;102846.75;5055625;28;20120;-75
2024/02/18 03:56:57;;;;;;;9.50;4.18;;;;;;;8.27;100.00;102837.13;5054691;28;20102;-75
2024/02/18 03:59:22;;;;;;;11.75;3.85;;;;;;;8.20;100.00;102825.13;5053936;28;20069;-75
2024/02/18 04:01:48;;;;;;;10.35;3.58;;;;;;;8.19;100.00;102823.41;5054392;28;20041;-75
2024/02/18 04:04:14;;;;;;;6.70;3.47;;;;;;;8.15;100.00;102821.84;5055122;28;20035;-76
2024/02/18 04:06:40;;;;;;;9.35;3.42;;;;;;;8.12;100.00;102812.22;5054822;28;20033;-75
2024/02/18 04:09:06;;;;;;;15.60;3.80;;;;;;;8.09;100.00;102807.06;5054680;28;20029;-75
2024/02/18 04:11:32;;;;;;;13.95;4.07;;;;;;;8.10;100.00;102809.66;5054970;28;20443;-74
2024/02/18 04:13:57;;;;;;;11.13;3.70;;;;;;;8.07;100.00;102801.84;5054345;28;20032;-76
2024/02/18 04:16:23;;;;;;;15.40;4.32;;;;;;;8.05;100.00;102797.56;5054405;28;20033;-76
2024/02/18 04:18:48;;;;;;;13.32;3.80;;;;;;;8.02;100.00;102787.13;5053629;28;20041;-76
2024/02/18 04:21:14;;;;;;;11.80;3.75;;;;;;;7.98;100.00;102781.09;5054054;28;20044;-75
2024/02/18 04:23:39;;;;;;;8.00;3.58;;;;;;;7.99;100.00;102784.63;5054520;28;20494;-76
2024/02/18 04:26:05;;;;;;;9.65;3.90;;;;;;;7.97;100.00;102781.16;5054634;28;20094;-74
2024/02/18 04:28:31;;;;;;;19.73;4.07;;;;;;;7.97;100.00;102775.88;5054221;28;20082;-76
2024/02/18 04:30:56;;;;;;;14.50;4.72;;;;;;;7.93;100.00;102765.41;5053991;28;20037;-74
2024/02/18 04:33:21;;;;;;;19.42;4.97;;;;;;;7.91;100.00;102767.28;5053739;28;20025;-74
2024/02/18 04:35:47;;;;;;;12.55;4.15;;;;;;;7.90;100.00;102770.03;5054085;28;20059;-74
2024/02/18 04:38:12;;;;;;;13.13;4.57;;;;;;;7.89;100.00;102769.13;5054205;28;20121;-75
2024/02/18 04:40:38;;;;;;;7.75;4.20;;;;;;;7.90;100.00;102767.38;5053851;28;20132;-75
2024/02/18 04:43:03;;;;;;;10.93;4.90;;;;;;;7.89;100.00;102757.69;5054293;28;20028;-76
2024/02/18 04:45:28;;;;;;;17.35;4.78;;;;;;;7.86;100.00;102763.16;5054051;28;20036;-74
2024/02/18 04:47:54;;;;;;;13.65;4.50;;;;;;;7.84;100.00;102755.28;5054310;28;20072;-77
2024/02/18 04:50:19;;;;;;;8.05;4.00;;;;;;;7.83;100.00;102763.28;5053762;28;20067;-75
2024/02/18 04:52:44;;;;;;;11.88;4.40;;;;;;;7.82;100.00;102758.91;5053699;28;20025;-75
2024/02/18 04:55:10;;;;;;;12.55;4.57;;;;;;;7.79;100.00;102757.25;5053852;28;20505;-75
2024/02/18 04:57:35;;;;;;;8.73;4.25;;;;;;;7.80;100.00;102759.00;5052473;28;20491;-75
2024/02/18 05:00:00;;;;;;;15.35;5.22;;;;;;;7.79;100.00;102741.38;5052161;28;20039;-77
2024/02/18 05:02:26;;;;;;;15.68;5.20;;;;;;;7.75;100.00;102745.97;5052514;28;20029;-75
2024/02/18 05:04:51;;;;;;;16.63;5.53;;;;;;;7.72;100.00;102734.66;5053691;28;20072;-75
2024/02/18 05:07:16;;;;;;;12.73;5.05;;;;;;;7.68;100.00;102738.41;5053292;28;20037;-75
2024/02/18 05:09:42;;;;;;;10.13;5.00;;;;;;;7.67;100.00;102739.31;5053151;28;20044;-74
2024/02/18 05:12:07;;;;;;;16.67;5.13;;;;;;;7.65;100.00;102738.53;5053332;28;20040;-75
2024/02/18 05:14:33;;;;;;;16.55;4.93;;;;;;;7.63;100.00;102735.97;5053046;28;20029;-76
2024/02/18 05:16:59;;;;;;;11.75;4.93;;;;;;;7.58;100.00;102733.53;5052980;28;20585;-76
2024/02/18 05:19:25;;;;;;;13.38;5.35;;;;;;;7.56;100.00;102742.47;5053237;28;20041;-77
2024/02/18 05:21:51;;;;;;;14.48;5.40;;;;;;;7.56;100.00;102738.03;5053305;28;20091;-76
2024/02/18 05:24:17;;;;;;;11.05;5.00;;;;;;;7.51;100.00;102731.22;5053251;28;20029;-75
2024/02/18 05:26:42;;;;;;;14.57;4.75;;;;;;;7.47;100.00;102730.53;5053501;28;20029;-75
2024/02/18 05:29:08;;;;;;;9.73;5.18;;;;;;;7.48;100.00;102732.25;5053000;28;20040;-75
2024/02/18 05:31:35;;;;;;;13.60;5.10;;;;;;;7.46;100.00;102730.59;5053212;28;20033;-76
2024/02/18 05:34:00;;;;;;;21.17;5.43;;;;;;;7.45;100.00;102723.56;5052857;28;20044;-76
2024/02/18 05:36:26;;;;;;;15.00;5.40;;;;;;;7.43;100.00;102718.34;5053433;28;20029;-76
2024/02/18 05:38:52;;;;;;;15.75;4.70;;;;;;;7.41;100.00;102717.59;5053382;28;20040;-75
2024/02/18 05:41:17;;;;;;;13.10;5.40;;;;;;;7.38;100.00;102718.56;5053078;28;20044;-75
2024/02/18 05:43:43;;;;;;;15.52;5.28;;;;;;;7.38;100.00;102710.63;5053074;28;20467;-75
2024/02/18 05:46:10;;;;;;;16.10;5.85;;;;;;;7.37;100.00;102700.13;5052952;28;20086;-75
2024/02/18 05:48:37;;;;;;;11.90;6.25;;;;;;;7.35;100.00;102700.19;5052172;28;20441;-75
2024/02/18 05:51:03;;;;;;;15.40;5.75;;;;;;;7.33;100.00;102691.47;5051603;28;20463;-76
2024/02/18 05:53:28;;;;;;;14.95;6.45;;;;;;;7.35;100.00;102696.69;5052932;28;20048;-76
2024/02/18 05:55:54;;;;;;;13.55;5.90;;;;;;;7.31;100.00;102680.06;5052585;28;20044;-80
2024/02/18 05:58:20;;;;;;;18.98;5.80;;;;;;;7.31;100.00;102682.72;5052600;28;20111;-76
2024/02/18 06:00:45;;;;;;;14.98;5.55;;;;;;;7.32;100.00;102680.94;5052858;28;20467;-75
2024/02/18 06:03:11;;;;;;;13.98;5.40;;;;;;;7.29;100.00;102663.41;5052501;28;20029;-77
2024/02/18 06:05:36;;;;;;;14.82;6.20;;;;;;;7.30;100.00;102667.78;5052792;28;20068;-76
2024/02/18 06:08:01;;;;;;;14.60;5.55;;;;;;;7.26;100.00;102660.06;5052679;28;20025;-76
2024/02/18 06:10:28;;;;;;;15.85;6.32;;;;;;;7.28;100.00;102656.38;5052892;28;20530;-77
2024/02/18 06:12:54;;;;;;;14.98;5.65;;;;;;;7.27;100.00;102659.97;5052786;28;20033;-77
2024/02/18 06:15:20;;;;;;;18.45;6.93;;;;;;;7.27;100.00;102661.75;5052954;28;20032;-76
2024/02/18 06:17:45;;;;;;;16.50;6.05;;;;;;;7.27;100.00;102654.69;5052946;28;20040;-75
2024/02/18 06:20:12;;;;;;;15.93;6.20;;;;;;;7.23;100.00;102645.16;5052187;28;20056;-76
2024/02/18 06:22:40;;;;;;;17.23;6.00;;;;;;;7.26;100.00;102638.88;5052327;28;20116;-76
2024/02/18 06:25:07;;;;;;;17.35;6.10;;;;;;;7.24;100.00;102642.44;5052234;28;20485;-76
2024/02/18 06:27:32;;;;;;;17.27;6.18;;;;;;;7.21;100.00;102637.31;5052969;28;20033;-76
2024/02/18 06:29:58;;;;;;;13.75;5.55;;;;;;;7.21;100.00;102632.00;5052685;28;20033;-76
2024/02/18 06:32:24;;;;;;;15.98;6.15;;;;;;;7.23;100.00;102629.28;5052649;28;20064;-76
2024/02/18 06:34:50;;;;;;;16.60;5.90;;;;;;;7.18;100.00;102634.81;5052281;28;20087;-76
2024/02/18 06:37:15;;;;;;;20.00;5.85;;;;;;;7.18;100.00;102634.81;5052606;28;20467;-79
2024/02/18 06:39:42;;;;;;;16.77;5.60;;;;;;;7.15;100.00;102624.34;5052528;28;20545;-76
2024/02/18 06:42:08;;;;;;;14.82;6.03;;;;;;;7.15;100.00;102626.13;5054312;28;20033;-78
2024/02/18 06:44:33;;;;;;;23.55;6.20;;;;;;;7.14;100.00;102621.78;5056362;28;20094;-76
2024/02/18 06:46:58;;;;;;;18.38;6.80;;;;;;;7.13;100.00;102620.06;5056438;28;20182;-76
2024/02/18 06:49:24;;;;;;;16.30;6.50;;;;;;;7.13;100.00;102628.00;5054938;28;20486;-75
2024/02/18 06:51:49;;;;;;;24.40;6.93;;;;;;;7.12;100.00;102621.84;5056195;28;20424;-74
2024/02/18 06:54:14;;;;;;;22.75;6.20;;;;;;;7.09;100.00;102614.06;5054831;28;20037;-75
2024/02/18 06:56:40;;;;;;;12.73;6.25;;;;;;;7.09;100.00;102615.84;5056427;28;20037;-76
2024/02/18 06:59:05;;;;;;;16.38;6.32;;;;;;;7.09;100.00;102615.84;5038655;28;20127;-76
2024/02/18 07:01:31;;;;;;;14.55;6.30;;;;;;;7.09;100.00;102607.91;5055339;28;20391;-75
2024/02/18 07:03:57;;;;;;;19.73;6.53;;;;;;;7.08;100.00;102617.63;5056050;28;20041;-75
2024/02/18 07:06:22;;;;;;;17.85;6.07;;;;;;;7.08;100.00;102604.41;5056019;28;20461;-75
2024/02/18 07:08:47;;;;;;;12.70;6.30;;;;;;;7.07;100.00;102607.97;5056156;28;20475;-75
2024/02/18 07:11:14;;;;;;;15.10;5.85;;;;;;;7.06;100.00;102604.47;5056192;28;20025;-76
2024/02/18 07:13:39;;;;;;;20.55;6.05;;;;;;;7.05;100.00;102596.59;5055003;28;20072;-76
2024/02/18 07:16:06;;;;;;;24.38;6.15;;;;;;;7.07;100.00;102600.03;5055482;28;20060;-78
2024/02/18 07:18:31;;;;;;;19.25;5.82;;;;;;;7.06;100.00;102591.25;5056558;28;20040;-77
2024/02/18 07:20:56;;;;;;;19.20;7.82;;;;;;;7.05;100.00;102596.59;5055987;28;20079;-76
2024/02/18 07:23:22;;;;;;;14.13;6.78;;;;;;;7.05;100.00;102588.66;5055960;28;20068;-77
2024/02/18 07:25:47;;;;;;;13.07;6.00;;;;;;;7.03;100.00;102587.88;5054138;28;20025;-77
2024/02/18 07:28:13;;;;;;;23.00;6.63;;;;;;;7.03;100.00;102586.09;5055425;28;20029;-77
2024/02/18 07:30:38;;;;;;;24.00;6.32;;;;;;;7.03;100.00;102587.88;5055888;28;20044;-77
2024/02/18 07:33:03;;;;;;;20.20;6.72;;;;;;;7.02;100.00;102583.53;5055164;28;20040;-77
2024/02/18 07:35:30;;;;;;;12.70;6.13;;;;;;;7.03;100.00;102587.88;5054933;28;20057;-77
2024/02/18 07:37:56;;;;;;;20.63;6.22;;;;;;;7.03;100.00;102582.56;5055694;28;20095;-77
2024/02/18 07:40:21;;;;;;;15.52;6.72;;;;;;;7.01;100.00;102580.00;5055775;28;20036;-78
2024/02/18 07:42:46;;;;;;;18.70;6.22;;;;;;;7.02;100.00;102588.81;5055281;28;20033;-77
2024/02/18 07:45:12;;;;;;;15.25;6.53;;;;;;;7.03;100.00;102571.97;5055183;28;20061;-76
2024/02/18 07:47:37;;;;;;;17.65;6.75;;;;;;;7.03;100.00;102571.97;5054902;28;20029;-77
2024/02/18 07:50:03;;;;;;;18.02;7.28;;;;;;;7.03;100.00;102574.63;5055090;28;20072;-76
2024/02/18 07:52:29;;;;;;;13.85;6.95;;;;;;;7.04;100.00;102579.00;5054769;28;20459;-76
2024/02/18 07:54:54;;;;;;;25.05;7.35;;;;;;;7.03;100.00;102574.63;5054699;28;20025;-75
2024/02/18 07:57:20;;;;;;;16.23;6.35;;;;;;;7.04;100.00;102568.41;5054867;28;20115;-76
2024/02/18 07:59:46;;;;;;;17.13;7.55;;;;;;;7.02;100.00;102565.84;5054988;28;20079;-77
2024/02/18 08:02:12;;;;;;;19.20;7.57;;;;;;;7.01;100.00;102565.91;5037460;28;20029;-77
2024/02/18 08:04:40;;;;;;;12.38;6.78;;;;;;;7.01;100.00;102561.47;5054745;28;20040;-77
2024/02/18 08:07:05;;;;;;;19.00;7.13;;;;;;;7.01;100.00;102557.97;5054665;28;20024;-77
2024/02/18 08:09:30;;;;;;;19.67;7.72;;;;;;;6.98;100.00;102564.25;5054679;28;20091;-76
2024/02/18 08:11:56;;;;;;;15.27;7.40;;;;;;;6.99;100.00;102546.63;5054685;28;20116;-77
2024/02/18 08:14:21;;;;;;;19.63;8.38;;;;;;;6.97;100.00;102544.06;5054882;28;20037;-75
2024/02/18 08:16:46;;;;;;;18.88;8.02;;;;;;;6.98;100.00;102550.19;5054862;28;20032;-77
2024/02/18 08:19:12;;;;;;;20.77;8.23;;;;;;;6.98;100.00;102544.91;5053950;28;20037;-76
2024/02/18 08:21:37;;;;;;;20.67;8.30;;;;;;;6.97;100.00;102541.41;5053881;28;20041;-76
2024/02/18 08:24:03;;;;;;;19.25;8.50;;;;;;;6.98;100.00;102540.44;5058450;28;20367;-77
2024/02/18 08:26:29;;;;;;;20.40;9.00;;;;;;;6.98;100.00;102536.94;5069330;28;20036;-79
2024/02/18 08:28:55;;;;;;;16.45;8.70;;;;;;;6.99;100.00;102536.88;5065807;28;20029;-78
2024/02/18 08:31:21;;;;;;;15.35;8.77;;;;;;;7.00;100.00;102530.66;5070536;28;20045;-79
2024/02/18 08:33:47;;;;;;;15.95;9.10;;;;;;;7.02;100.00;102528.78;5070189;28;20444;-77
2024/02/18 08:36:12;;;;;;;22.83;9.02;;;;;;;7.02;100.00;102526.13;5071198;28;20053;-77
2024/02/18 08:38:39;;;;;;;17.42;8.77;;;;;;;7.04;100.00;102518.97;5066991;28;20175;-78
2024/02/18 08:41:05;;;;;;;20.48;8.70;;;;;;;7.05;100.00;102518.06;5055300;28;20025;-78
2024/02/18 08:43:31;;;;;;;14.55;8.38;;;;;;;7.06;100.00;102514.47;5054079;28;20065;-78
2024/02/18 08:45:57;;;;;;;22.00;8.93;;;;;;;7.05;100.00;102511.91;5054707;28;20091;-76
2024/02/18 08:48:22;;;;;;;13.85;8.63;;;;;;;7.06;100.00;102505.66;5054268;28;20041;-75
2024/02/18 08:50:47;;;;;;;15.82;8.75;;;;;;;7.09;100.00;102507.31;5054286;28;20025;-77
2024/02/18 08:53:13;;;;;;;15.85;8.77;;;;;;;7.11;100.00;102503.66;5053909;28;20459;-76
2024/02/18 08:55:38;;;;;;;16.13;8.85;;;;;;;7.12;100.00;102488.63;5053927;28;20040;-76
2024/02/18 08:58:03;;;;;;;19.30;8.35;;;;;;;7.11;100.00;102492.22;5052636;28;20395;-77
2024/02/18 09:00:29;;;;;;;12.90;8.40;;;;;;;7.12;100.00;102493.91;5054351;28;20029;-75
2024/02/18 09:02:55;;;;;;;15.48;8.20;;;;;;;7.08;100.00;102487.94;5052510;28;20028;-76
2024/02/18 09:05:22;;;;;;;19.55;8.90;;;;;;;7.10;100.00;102477.28;5053202;28;20467;-77
2024/02/18 09:07:48;;;;;;;16.85;9.00;;;;;;;7.09;100.00;102472.91;5053934;28;20036;-77
2024/02/18 09:10:13;;;;;;;20.17;9.00;;;;;;;7.10;100.00;102462.22;5053466;28;20102;-78
2024/02/18 09:12:39;;;;;;;13.15;8.45;;;;;;;7.12;100.00;102475.38;5053847;28;20031;-76
2024/02/18 09:15:05;;;;;;;16.48;8.23;;;;;;;7.13;100.00;102461.22;5052317;28;20033;-79
2024/02/18 09:17:30;;;;;;;16.10;8.38;;;;;;;7.13;100.00;102458.59;5053364;28;20048;-76
2024/02/18 09:19:55;;;;;;;21.45;8.90;;;;;;;7.13;100.00;102453.28;5053413;28;20455;-77
2024/02/18 09:22:21;;;;;;;18.52;8.23;;;;;;;7.13;100.00;102453.28;5052147;28;20557;-79
2024/02/18 09:24:46;;;;;;;24.17;8.82;;;;;;;7.13;100.00;102454.13;5053237;28;20516;-79
2024/02/18 09:27:12;;;;;;;11.10;8.32;;;;;;;7.14;100.00;102436.47;5054032;28;20382;-78
2024/02/18 09:29:37;;;;;;;15.52;8.63;;;;;;;7.15;100.00;102440.81;5053415;28;20025;-77
2024/02/18 09:32:05;;;;;;;17.90;8.95;;;;;;;7.16;100.00;102429.31;5052825;28;20033;-79
2024/02/18 09:34:31;;;;;;;21.52;9.05;;;;;;;7.13;100.00;102425.03;5050798;28;20049;-79
2024/02/18 09:36:56;;;;;;;15.20;8.73;;;;;;;7.14;100.00;102410.00;5052228;28;20047;-79
2024/02/18 09:39:22;;;;;;;21.63;8.00;;;;;;;7.16;100.00;102413.44;5053092;28;20482;-79
2024/02/18 09:41:48;;;;;;;15.68;8.85;;;;;;;7.15;100.00;102415.22;5052993;28;20454;-80
2024/02/18 09:44:14;;;;;;;15.35;8.13;;;;;;;7.16;100.00;102405.47;5053168;28;20025;-78
2024/02/18 09:46:41;;;;;;;14.50;7.88;;;;;;;7.15;100.00;102395.81;5053334;28;20021;-79
2024/02/18 09:49:12;;;;;;;14.35;7.80;;;;;;;7.17;100.00;102409.84;5051648;28;20029;-78
2024/02/18 09:51:38;;;;;;;;;;;;;;;7.17;100.00;102384.22;5053879;28;20094;-78
2024/02/18 09:54:04;;;;;;;13.77;8.13;;;;;;;7.19;100.00;102379.69;5052856;28;20346;-81
2024/02/18 09:56:30;;;;;;;16.98;7.85;;;;;;;7.22;100.00;102381.34;5052647;28;20025;-82
2024/02/18 09:58:56;;;;;;;19.02;7.53;;;;;;;7.21;100.00;102374.31;5053430;28;20112;-79
2024/02/18 10:01:22;;;;;;;17.00;8.02;;;;;;;7.23;100.00;102375.97;5053127;28;20040;-79
2024/02/18 10:03:48;;;;;;;15.00;8.20;;;;;;;7.23;100.00;102378.59;5053537;28;20467;-79
2024/02/18 10:06:14;;;;;;;13.05;7.45;;;;;;;7.23;100.00;102370.66;5054057;28;20029;-79
2024/02/18 10:08:51;;;;;;;19.73;8.73;;;;;;;7.22;100.00;102381.34;5054068;28;20044;-80
2024/02/18 10:11:19;;;;;;;18.15;8.60;;;;;;;7.23;100.00;102375.13;5058170;28;20035;-79
2024/02/18 10:13:45;;;;;;;14.40;8.13;;;;;;;7.26;100.00;102366.16;5057373;28;20048;-78
2024/02/18 10:16:10;;;;;;;16.23;8.32;;;;;;;7.26;100.00;102369.66;5059834;28;20029;-80
2024/02/18 10:18:36;;;;;;;20.58;7.80;;;;;;;7.26;100.00;102366.16;5059149;28;20479;-77
2024/02/18 10:21:02;;;;;;;17.92;8.23;;;;;;;7.27;100.00;102362.56;5059035;28;20036;-77
2024/02/18 10:23:28;;;;;;;15.85;8.35;;;;;;;7.26;100.00;102361.72;5057559;28;20033;-80
2024/02/18 10:25:53;;;;;;;14.20;8.23;;;;;;;7.26;100.00;102359.06;5059746;28;20037;-79
2024/02/18 10:28:20;;;;;;;15.23;8.90;;;;;;;7.27;100.00;102346.69;5061467;28;20119;-81
2024/02/18 10:30:45;;;;;;;14.13;8.77;;;;;;;7.28;100.00;102341.28;5059228;28;20040;-80
2024/02/18 10:33:11;;;;;;;18.17;9.40;;;;;;;7.27;100.00;102339.59;5060047;28;20033;-79
2024/02/18 10:35:36;;;;;;;16.75;8.80;;;;;;;7.31;100.00;102340.28;5059875;28;20071;-81
2024/02/18 10:38:07;;;;;;;15.13;8.23;;;;;;;7.29;100.00;102335.06;5057976;28;20029;-79
2024/02/18 10:40:35;;;;;;;9.30;6.82;;;;;;;7.28;100.00;102328.06;5059020;28;20036;-80
2024/02/18 10:43:04;;;;;;;16.90;7.53;;;;;;;7.26;100.00;102324.66;5055150;28;20043;-78
2024/02/18 10:45:30;;;;;;;13.48;7.90;;;;;;;7.26;100.00;102311.41;5055877;28;20473;-78
2024/02/18 10:47:58;;;;;;;13.82;6.95;;;;;;;7.26;100.00;102314.06;5055562;28;20033;-74
2024/02/18 10:50:26;;;;;;;8.30;6.40;;;;;;;7.27;100.00;102305.19;5056065;28;20474;-77
2024/02/18 10:53:04;;;;;;;10.90;6.40;;;;;;;7.26;100.00;102290.22;5055010;28;20069;-78
2024/02/18 10:55:41;;;;;;;6.88;6.13;;;;;;;7.25;100.00;102288.50;5056271;28;20021;-77
2024/02/18 10:58:50;;;;;;;12.25;7.07;;;;;;;7.28;100.00;102282.22;5055719;28;20033;-79
2024/02/18 11:01:19;;;;;;;9.98;7.03;;;;;;;7.25;100.00;102275.28;5054180;28;20049;-78
2024/02/18 11:03:51;;;;;;;19.95;7.20;;;;;;;7.23;100.00;102266.56;5056073;28;20203;-79
2024/02/18 11:06:17;;;;;;;11.88;6.97;;;;;;;7.22;100.00;102256.91;5056655;28;20041;-78
2024/02/18 11:08:44;;;;;;;7.95;6.72;;;;;;;7.23;100.00;102253.34;5055353;28;20033;-79
2024/02/18 11:11:12;;;;;;;13.57;8.50;;;;;;;7.23;100.00;102254.19;5056170;28;20033;-78
2024/02/18 11:13:38;;;;;;;13.68;7.85;;;;;;;7.23;100.00;102240.94;5055784;28;20037;-78